Time;durP1;ratioP1;P1;durP2;ratioP2;P2;SDS_P1;SDS_P2;PMS_P1;PMS_P2;Temp;Humidity;BMP_temperature;BMP_pressure;BME280_temperature;BME280_humidity;BME280_pressure;Samples;Min_cycle;Max_cycle;Signal;HPM_P1;HPM_P2
2022/01/27 00:00:49;;;;;;;40.80;22.23;;;7.00;99.90;;;;;;5031118;28;20049;-69
2022/01/27 00:04:07;;;;;;;38.13;22.08;;;7.10;99.90;;;;;;5031207;28;20388;-69
2022/01/27 00:07:11;;;;;;;53.95;33.47;;;7.00;99.90;;;;;;5030976;28;20044;-68
2022/01/27 00:10:44;;;;;;;35.13;21.38;;;7.00;99.90;;;;;;5030080;28;20052;-68
2022/01/27 00:13:57;;;;;;;24.08;15.23;;;7.00;99.90;;;;;;5030461;28;20487;-69
2022/01/27 00:17:12;;;;;;;28.35;16.45;;;7.10;99.90;;;;;;5030532;28;20511;-69
2022/01/27 00:20:17;;;;;;;38.67;21.65;;;7.20;99.90;;;;;;5029951;28;20057;-69
2022/01/27 00:23:21;;;;;;;42.05;22.35;;;7.00;99.90;;;;;;5030890;28;20052;-69
2022/01/27 00:26:26;;;;;;;34.40;22.63;;;6.90;99.90;;;;;;5031942;28;20056;-69
2022/01/27 00:29:30;;;;;;;36.47;23.30;;;6.80;99.90;;;;;;5029995;28;20056;-69
2022/01/27 00:32:34;;;;;;;39.70;23.95;;;6.70;99.90;;;;;;5032573;28;20530;-69
2022/01/27 00:35:39;;;;;;;40.90;24.33;;;6.70;99.90;;;;;;5030406;28;20057;-69
2022/01/27 00:38:43;;;;;;;51.97;30.77;;;6.70;99.90;;;;;;5030142;28;20048;-68
2022/01/27 00:41:47;;;;;;;42.13;26.05;;;6.70;99.90;;;;;;5030599;28;20514;-68
2022/01/27 00:44:51;;;;;;;40.28;25.55;;;6.80;99.90;;;;;;5030161;28;20041;-68
2022/01/27 00:47:57;;;;;;;40.83;25.23;;;6.80;99.90;;;;;;5030554;28;20495;-68
2022/01/27 00:51:04;;;;;;;51.53;30.73;;;6.80;99.90;;;;;;5030354;28;20056;-69
2022/01/27 00:54:16;;;;;;;43.75;29.65;;;6.80;99.90;;;;;;5030186;28;20044;-68
2022/01/27 00:57:34;;;;;;;45.22;27.48;;;6.80;99.90;;;;;;5029172;28;20048;-68
2022/01/27 01:00:48;;;;;;;43.13;23.52;;;6.90;99.90;;;;;;5029991;28;20400;-68
2022/01/27 01:03:56;;;;;;;38.35;25.10;;;6.50;99.90;;;;;;5030313;28;20507;-68
2022/01/27 01:07:01;;;;;;;44.10;24.70;;;6.40;99.90;;;;;;5030067;28;20048;-69
2022/01/27 01:30:20;;;;;;;37.05;22.15;;;6.80;99.90;;;;;;5034714;28;20060;-68
2022/01/27 01:33:32;;;;;;;41.65;25.20;;;6.80;99.90;;;;;;5034174;28;20052;-68
2022/01/27 01:36:47;;;;;;;46.83;29.23;;;6.50;99.90;;;;;;5022277;28;20049;-69
2022/01/27 01:39:51;;;;;;;44.92;26.88;;;6.20;99.90;;;;;;5033409;28;20530;-69
2022/01/27 01:42:55;;;;;;;49.42;28.08;;;5.90;99.90;;;;;;5033788;28;20056;-69
2022/01/27 01:45:59;;;;;;;50.15;30.42;;;5.90;99.90;;;;;;5033658;28;20491;-69
2022/01/27 01:49:05;;;;;;;47.90;28.98;;;5.90;99.90;;;;;;5032984;28;20052;-68
2022/01/27 01:52:10;;;;;;;53.42;31.98;;;6.00;99.90;;;;;;5033400;28;20104;-68
2022/01/27 01:55:14;;;;;;;66.68;33.15;;;6.00;99.90;;;;;;5033322;28;20049;-69
2022/01/27 01:58:20;;;;;;;50.38;30.73;;;6.10;99.90;;;;;;5032576;28;20040;-68
2022/01/27 02:01:24;;;;;;;57.05;32.03;;;6.10;99.90;;;;;;5032958;28;20068;-68
2022/01/27 02:04:29;;;;;;;58.60;34.00;;;6.10;99.90;;;;;;5034796;28;20056;-69
2022/01/27 02:18:00;;;;;;;58.65;36.55;;;5.10;99.90;;;;;;5032494;28;20040;-69
2022/01/27 02:21:04;;;;;;;65.35;37.08;;;4.90;99.90;;;;;;5032459;28;20057;-69
2022/01/27 02:24:08;;;;;;;59.70;36.90;;;4.80;99.90;;;;;;5032973;28;20526;-69
2022/01/27 02:27:14;;;;;;;67.82;39.83;;;4.70;99.90;;;;;;5032519;28;20503;-69
2022/01/27 02:30:18;;;;;;;75.72;42.13;;;4.70;99.90;;;;;;5032208;28;20052;-69
2022/01/27 02:33:32;;;;;;;66.07;42.03;;;4.70;99.90;;;;;;5032212;28;20420;-69
2022/01/27 02:36:36;;;;;;;66.95;40.25;;;4.70;99.90;;;;;;5032516;28;20511;-69
2022/01/27 02:39:40;;;;;;;63.13;37.80;;;4.70;99.90;;;;;;5031245;28;20049;-68
2022/01/27 02:42:44;;;;;;;67.57;37.53;;;4.70;99.90;;;;;;5031731;28;20053;-68
2022/01/27 02:46:21;;;;;;;59.55;36.10;;;4.70;99.90;;;;;;5032513;28;20045;-69
2022/01/27 02:49:27;;;;;;;72.10;42.38;;;4.60;99.90;;;;;;5032165;28;20396;-69
2022/01/27 02:52:31;;;;;;;73.03;42.28;;;4.50;99.90;;;;;;5032402;28;20496;-68
2022/01/27 02:55:36;;;;;;;63.33;39.15;;;4.50;99.90;;;;;;5032427;28;20064;-68
2022/01/27 02:58:41;;;;;;;82.63;47.08;;;4.50;99.90;;;;;;5031840;28;20408;-68
2022/01/27 03:01:46;;;;;;;74.63;45.42;;;4.60;99.90;;;;;;5032290;28;20048;-68
2022/01/27 03:04:51;;;;;;;88.00;48.83;;;4.50;99.90;;;;;;5032380;28;20056;-69
2022/01/27 03:07:55;;;;;;;70.55;42.13;;;4.60;99.90;;;;;;5032230;28;20554;-69
2022/01/27 03:11:06;;;;;;;77.10;46.20;;;4.50;99.90;;;;;;5032246;28;20044;-68
2022/01/27 03:14:11;;;;;;;81.00;47.28;;;4.60;99.90;;;;;;5032242;28;20041;-69
2022/01/27 03:17:17;;;;;;;84.95;48.67;;;4.60;99.90;;;;;;5032089;28;20495;-68
2022/01/27 03:20:21;;;;;;;82.03;48.65;;;4.60;99.90;;;;;;5031654;28;20044;-69
2022/01/27 03:23:24;;;;;;;79.95;46.40;;;4.60;99.90;;;;;;5031652;28;20052;-69
2022/01/27 03:26:29;;;;;;;83.80;47.20;;;4.70;99.90;;;;;;5032182;28;20392;-68
2022/01/27 03:29:33;;;;;;;70.10;43.58;;;4.80;99.90;;;;;;5031314;28;20060;-69
2022/01/27 03:32:38;;;;;;;76.88;44.53;;;4.90;99.90;;;;;;5031643;28;20044;-68
2022/01/27 03:35:42;;;;;;;77.22;45.03;;;4.80;99.90;;;;;;5031290;28;20052;-68
2022/01/27 03:38:47;;;;;;;79.82;45.20;;;4.80;99.90;;;;;;5032640;28;20056;-68
2022/01/27 03:41:53;;;;;;;77.75;44.00;;;4.80;99.90;;;;;;5031254;28;20048;-68
2022/01/27 03:44:57;;;;;;;73.93;41.03;;;4.90;99.90;;;;;;5031410;28;20044;-68
2022/01/27 03:48:02;;;;;;;71.78;41.60;;;5.00;99.90;;;;;;5030150;28;20049;-68
2022/01/27 03:51:06;;;;;;;70.45;41.65;;;5.00;99.90;;;;;;5029796;28;20396;-68
2022/01/27 03:54:10;;;;;;;67.95;39.72;;;5.00;99.90;;;;;;5030995;28;20048;-69
2022/01/27 03:57:14;;;;;;;71.70;41.65;;;5.00;99.90;;;;;;5031907;28;20045;-68
2022/01/27 04:00:18;;;;;;;67.03;40.05;;;5.00;99.90;;;;;;5030536;28;20045;-68
2022/01/27 04:03:24;;;;;;;69.07;41.13;;;5.10;99.90;;;;;;5030892;28;20056;-69
2022/01/27 04:06:40;;;;;;;69.90;41.85;;;5.10;99.90;;;;;;5030826;28;20068;-69
2022/01/27 04:09:44;;;;;;;64.78;39.97;;;5.10;99.90;;;;;;5030414;28;20056;-68
2022/01/27 04:12:48;;;;;;;65.18;40.55;;;5.20;99.90;;;;;;5029656;28;20060;-69
2022/01/27 04:15:52;;;;;;;64.80;39.08;;;5.20;99.90;;;;;;5030672;28;20060;-69
2022/01/27 04:18:55;;;;;;;69.03;41.42;;;5.20;99.90;;;;;;5030316;28;20045;-68
2022/01/27 04:22:00;;;;;;;67.88;40.92;;;5.30;99.90;;;;;;5030687;28;20049;-69
2022/01/27 04:25:04;;;;;;;73.07;40.13;;;5.30;99.90;;;;;;5031632;28;20057;-69
2022/01/27 04:28:12;;;;;;;76.60;41.92;;;5.20;99.90;;;;;;5030748;28;20052;-69
2022/01/27 04:31:17;;;;;;;67.07;41.35;;;5.10;99.90;;;;;;5030594;28;20060;-68
2022/01/27 04:34:21;;;;;;;72.32;42.00;;;4.90;99.90;;;;;;5030117;28;20116;-68
2022/01/27 04:37:29;;;;;;;69.85;42.40;;;4.80;99.90;;;;;;5042232;28;20068;-68
2022/01/27 04:43:48;;;;;;;71.18;43.88;;;4.80;99.90;;;;;;5031280;28;20041;-68
2022/01/27 04:49:59;;;;;;;69.55;44.30;;;4.70;99.90;;;;;;5030160;28;20048;-69
2022/01/27 04:53:06;;;;;;;69.20;44.17;;;4.70;99.90;;;;;;5029786;28;20061;-69
2022/01/27 04:56:13;;;;;;;80.57;44.05;;;4.60;99.90;;;;;;5031051;28;20060;-69
2022/01/27 04:59:25;;;;;;;68.10;42.47;;;4.60;99.90;;;;;;5029606;28;20060;-69
2022/01/27 05:02:36;;;;;;;74.57;44.97;;;4.60;99.90;;;;;;5031634;28;20041;-69
2022/01/27 05:05:40;;;;;;;67.35;40.08;;;4.60;99.90;;;;;;5030186;28;20049;-69
2022/01/27 05:08:44;;;;;;;66.55;41.90;;;4.60;99.90;;;;;;5029903;28;20053;-68
2022/01/27 05:12:06;;;;;;;71.03;41.40;;;4.70;99.90;;;;;;5030756;28;20234;-68
2022/01/27 05:15:11;;;;;;;73.50;42.83;;;4.80;99.90;;;;;;5029569;28;20057;-69
2022/01/27 05:18:16;;;;;;;81.22;47.97;;;4.60;99.90;;;;;;5029548;28;20048;-69
2022/01/27 05:21:20;;;;;;;81.10;46.20;;;4.40;99.90;;;;;;5029851;28;20393;-69
2022/01/27 05:24:24;;;;;;;76.65;44.50;;;4.20;99.90;;;;;;5029567;28;20057;-69
2022/01/27 05:27:28;;;;;;;81.32;48.42;;;4.30;99.90;;;;;;5041759;28;20056;-68
2022/01/27 05:30:34;;;;;;;77.40;48.92;;;4.30;99.90;;;;;;5029097;28;20061;-68
2022/01/27 05:33:38;;;;;;;72.32;42.70;;;4.30;99.90;;;;;;5029558;28;20104;-68
2022/01/27 05:36:42;;;;;;;78.28;46.55;;;4.30;99.90;;;;;;5030348;28;20076;-69
2022/01/27 05:39:46;;;;;;;76.85;46.35;;;4.30;99.90;;;;;;5028966;28;20388;-68
2022/01/27 05:42:50;;;;;;;77.53;45.15;;;4.30;99.90;;;;;;5031856;28;20057;-69
2022/01/27 05:45:55;;;;;;;80.22;47.67;;;4.40;99.90;;;;;;5029750;28;20068;-68
2022/01/27 05:48:59;;;;;;;78.35;46.53;;;4.40;99.90;;;;;;5029259;28;20495;-68
2022/01/27 05:52:03;;;;;;;78.35;47.30;;;4.50;99.90;;;;;;5030081;28;20068;-69
2022/01/27 05:55:07;;;;;;;68.60;43.03;;;4.50;99.90;;;;;;5029308;28;20044;-69
2022/01/27 05:58:11;;;;;;;70.05;41.55;;;4.60;99.90;;;;;;5029097;28;20570;-69
2022/01/27 06:01:15;;;;;;;77.07;45.00;;;4.70;99.90;;;;;;5029601;28;20038;-69
2022/01/27 06:04:19;;;;;;;78.22;46.13;;;4.70;99.90;;;;;;5029373;28;20487;-69
2022/01/27 06:07:23;;;;;;;72.63;43.80;;;4.70;99.90;;;;;;5029742;28;20518;-68
2022/01/27 06:10:28;;;;;;;72.57;42.50;;;4.70;99.90;;;;;;5031092;28;20064;-68
2022/01/27 06:13:33;;;;;;;74.20;41.58;;;4.80;99.90;;;;;;5032701;28;20048;-69
2022/01/27 06:16:37;;;;;;;63.53;41.00;;;4.80;99.90;;;;;;5034476;28;20041;-69
2022/01/27 06:19:44;;;;;;;64.53;38.95;;;4.80;99.90;;;;;;5012538;28;20045;-69
2022/01/27 06:22:53;;;;;;;76.75;42.10;;;4.80;99.90;;;;;;5015695;28;20045;-69
2022/01/27 06:25:59;;;;;;;66.40;40.20;;;4.80;99.90;;;;;;5012032;28;20044;-68
2022/01/27 06:29:05;;;;;;;71.85;40.40;;;4.70;99.90;;;;;;5012298;28;20069;-68
2022/01/27 06:32:08;;;;;;;64.63;38.58;;;4.80;99.90;;;;;;5013295;28;20045;-69
2022/01/27 06:35:12;;;;;;;69.28;41.35;;;4.80;99.90;;;;;;5012462;28;20060;-68
2022/01/27 06:38:17;;;;;;;64.93;40.85;;;4.80;99.90;;;;;;5016536;28;20049;-68
2022/01/27 06:41:21;;;;;;;67.07;40.00;;;4.80;99.90;;;;;;5013455;28;20053;-69
2022/01/27 06:44:26;;;;;;;65.38;39.97;;;4.80;99.90;;;;;;5012493;28;20045;-68
2022/01/27 06:47:31;;;;;;;66.90;41.13;;;4.90;99.90;;;;;;5015098;28;20044;-68
2022/01/27 06:50:37;;;;;;;66.15;40.47;;;4.90;99.90;;;;;;5014219;28;20045;-68
2022/01/27 06:53:41;;;;;;;71.10;41.80;;;4.90;99.90;;;;;;5012687;28;20041;-68
2022/01/27 06:56:46;;;;;;;69.15;40.80;;;4.90;99.90;;;;;;5013803;28;20048;-68
2022/01/27 06:59:50;;;;;;;69.13;41.65;;;4.90;99.90;;;;;;5013507;28;20041;-68
2022/01/27 07:02:55;;;;;;;73.30;42.47;;;4.90;99.90;;;;;;5013575;28;20041;-68
2022/01/27 07:06:00;;;;;;;64.95;39.03;;;4.90;99.90;;;;;;5032425;28;20044;-68
2022/01/27 07:09:04;;;;;;;63.30;38.03;;;5.00;99.90;;;;;;5014099;28;20052;-68
2022/01/27 07:12:09;;;;;;;62.47;38.35;;;5.00;99.90;;;;;;5032844;28;20041;-70
2022/01/27 07:15:16;;;;;;;74.20;40.33;;;5.10;99.90;;;;;;5031034;28;20064;-69
2022/01/27 07:18:20;;;;;;;67.00;40.33;;;5.20;99.90;;;;;;5034053;28;20048;-69
2022/01/27 07:21:24;;;;;;;57.67;34.08;;;5.20;99.90;;;;;;5017930;28;20392;-69
2022/01/27 07:24:28;;;;;;;48.85;29.13;;;5.30;99.90;;;;;;5026502;28;20044;-69
2022/01/27 07:27:36;;;;;;;53.83;31.10;;;5.40;99.90;;;;;;5032768;28;20044;-69
2022/01/27 07:30:40;;;;;;;50.75;30.95;;;5.40;99.90;;;;;;5021040;28;20044;-70
2022/01/27 07:33:44;;;;;;;64.28;36.70;;;5.50;99.90;;;;;;5017674;28;20373;-70
2022/01/27 07:36:48;;;;;;;57.00;36.55;;;5.20;99.90;;;;;;5032919;28;20045;-69
2022/01/27 07:39:52;;;;;;;61.97;37.15;;;5.20;99.90;;;;;;5035774;28;20052;-70
2022/01/27 07:42:58;;;;;;;56.67;36.55;;;5.10;99.90;;;;;;5029192;28;20040;-69
2022/01/27 07:46:03;;;;;;;62.60;37.47;;;5.00;99.90;;;;;;5031254;28;20052;-70
2022/01/27 07:49:07;;;;;;;65.63;40.42;;;4.80;99.90;;;;;;5029407;28;20045;-70
2022/01/27 07:52:12;;;;;;;60.13;37.55;;;4.70;99.90;;;;;;5028540;28;20072;-70
2022/01/27 07:55:18;;;;;;;61.78;36.33;;;4.70;99.90;;;;;;5033732;28;20040;-69
2022/01/27 07:58:22;;;;;;;60.47;36.47;;;4.80;99.90;;;;;;5032567;28;20040;-70
2022/01/27 08:01:27;;;;;;;64.03;36.35;;;4.90;99.90;;;;;;5031300;28;20044;-70
2022/01/27 08:04:32;;;;;;;65.22;37.47;;;5.00;99.90;;;;;;5032831;28;20132;-69
2022/01/27 08:07:36;;;;;;;61.00;38.05;;;4.90;99.90;;;;;;5021896;28;20044;-70
2022/01/27 08:10:40;;;;;;;59.72;37.20;;;4.80;99.90;;;;;;5018535;28;20037;-70
2022/01/27 08:13:46;;;;;;;67.30;41.53;;;4.80;99.90;;;;;;5022553;28;20049;-70
2022/01/27 08:16:50;;;;;;;65.40;39.35;;;4.80;99.90;;;;;;5031193;28;20052;-69
2022/01/27 08:19:54;;;;;;;67.78;39.08;;;4.90;99.90;;;;;;5030752;28;20036;-69
2022/01/27 08:22:58;;;;;;;57.10;36.15;;;4.90;99.90;;;;;;5018106;28;20048;-70
2022/01/27 08:26:08;;;;;;;59.25;35.58;;;5.00;99.90;;;;;;5027993;28;20048;-70
2022/01/27 08:29:20;;;;;;;67.07;40.47;;;5.00;99.90;;;;;;5012258;28;20397;-69
2022/01/27 08:32:44;;;;;;;68.70;40.45;;;4.90;99.90;;;;;;5017544;28;20525;-70
2022/01/27 08:35:48;;;;;;;85.35;43.10;;;4.80;99.90;;;;;;5012522;28;20048;-70
2022/01/27 08:38:53;;;;;;;58.90;36.85;;;5.00;99.90;;;;;;5018822;28;20041;-70
2022/01/27 08:41:59;;;;;;;63.38;37.78;;;5.10;99.90;;;;;;5026794;28;20496;-70
2022/01/27 08:45:02;;;;;;;56.95;35.20;;;5.10;99.90;;;;;;5029774;28;20040;-70
2022/01/27 08:48:10;;;;;;;61.72;37.80;;;5.20;99.90;;;;;;5031831;28;20392;-70
2022/01/27 08:51:20;;;;;;;50.83;33.60;;;5.30;99.90;;;;;;5028937;28;20064;-70
2022/01/27 08:54:26;;;;;;;57.70;34.50;;;5.50;99.90;;;;;;5025577;28;20045;-70
2022/01/27 08:57:32;;;;;;;56.25;35.38;;;5.70;99.90;;;;;;5026514;28;20056;-70
2022/01/27 09:00:37;;;;;;;55.13;32.28;;;5.80;99.90;;;;;;5020689;28;20072;-70
2022/01/27 09:03:43;;;;;;;56.17;35.08;;;5.70;99.90;;;;;;5022406;28;20052;-69
2022/01/27 09:06:46;;;;;;;64.97;39.65;;;5.90;99.90;;;;;;5028626;28;20048;-70
2022/01/27 09:09:54;;;;;;;70.53;40.08;;;6.00;99.90;;;;;;5032001;28;20040;-70
2022/01/27 09:13:03;;;;;;;55.40;35.75;;;6.10;99.90;;;;;;5019037;28;20037;-70
2022/01/27 09:16:09;;;;;;;58.53;34.10;;;6.20;99.90;;;;;;5011382;28;20045;-70
2022/01/27 09:19:16;;;;;;;54.95;35.05;;;6.40;99.90;;;;;;5012177;28;20049;-70
2022/01/27 09:22:22;;;;;;;52.22;33.72;;;6.30;99.90;;;;;;5016767;28;20032;-70
2022/01/27 09:25:32;;;;;;;56.45;33.92;;;6.00;99.90;;;;;;5030175;28;20057;-69
2022/01/27 09:28:36;;;;;;;52.65;31.38;;;6.10;99.90;;;;;;5029389;28;20391;-70
2022/01/27 09:31:40;;;;;;;48.10;28.15;;;6.10;99.90;;;;;;5032522;28;20036;-69
2022/01/27 09:34:44;;;;;;;45.83;29.00;;;5.80;99.90;;;;;;5032357;28;20048;-70
2022/01/27 09:37:48;;;;;;;45.97;29.17;;;6.10;99.90;;;;;;5031668;28;20503;-70
2022/01/27 09:40:53;;;;;;;45.50;28.33;;;6.00;99.90;;;;;;5027528;28;20036;-69
2022/01/27 09:43:58;;;;;;;46.72;29.58;;;5.80;99.90;;;;;;5027839;28;20491;-70
2022/01/27 09:47:16;;;;;;;47.30;26.90;;;5.20;99.90;;;;;;5026407;28;20041;-70
2022/01/27 09:50:30;;;;;;;43.95;27.63;;;5.40;99.90;;;;;;5019363;28;20040;-69
2022/01/27 09:53:35;;;;;;;43.00;25.63;;;5.70;99.90;;;;;;5030726;28;20032;-70
2022/01/27 09:56:40;;;;;;;43.95;26.92;;;5.90;99.90;;;;;;5028841;28;20120;-69
2022/01/27 09:59:46;;;;;;;38.60;25.83;;;6.10;99.90;;;;;;5025998;28;20069;-70
2022/01/27 10:03:13;;;;;;;42.63;25.58;;;6.30;99.90;;;;;;5028138;28;20495;-70
2022/01/27 10:06:18;;;;;;;43.85;27.83;;;6.40;99.90;;;;;;5032014;28;20400;-70
2022/01/27 10:09:29;;;;;;;89.50;50.38;;;6.50;99.90;;;;;;5032349;28;20052;-70
2022/01/27 10:12:39;;;;;;;195.18;106.43;;;6.60;99.90;;;;;;5033607;28;20041;-70
2022/01/27 10:15:46;;;;;;;46.08;29.95;;;6.60;99.90;;;;;;5030238;28;20040;-69
2022/01/27 10:19:06;;;;;;;57.03;33.63;;;6.70;99.90;;;;;;5030110;28;20040;-70
2022/01/27 10:22:15;;;;;;;100.82;58.35;;;6.60;99.90;;;;;;5024876;28;20211;-70
2022/01/27 10:25:21;;;;;;;188.95;101.13;;;6.70;99.90;;;;;;5023949;28;20057;-69
2022/01/27 10:28:46;;;;;;;119.10;63.50;;;7.00;99.90;;;;;;5020361;28;20396;-69
2022/01/27 10:32:01;;;;;;;89.38;51.22;;;7.10;99.90;;;;;;5018332;28;20061;-70
2022/01/27 10:35:09;;;;;;;95.03;55.00;;;7.40;99.90;;;;;;5030849;28;20052;-70
2022/01/27 10:38:14;;;;;;;132.65;74.13;;;7.50;99.90;;;;;;5013541;28;20669;-70
2022/01/27 10:41:20;;;;;;;398.30;205.23;;;7.60;99.90;;;;;;5025011;28;20037;-69
2022/01/27 10:44:48;;;;;;;139.25;70.18;;;7.70;99.90;;;;;;5030631;28;20056;-69
2022/01/27 10:48:22;;;;;;;81.57;48.30;;;7.90;99.90;;;;;;5026476;28;20384;-70
2022/01/27 10:51:30;;;;;;;59.58;36.83;;;8.10;99.90;;;;;;5023957;28;20040;-69
2022/01/27 10:54:41;;;;;;;54.50;32.25;;;8.30;99.90;;;;;;5022727;28;20052;-69
2022/01/27 10:57:50;;;;;;;300.27;155.60;;;8.50;99.90;;;;;;5024329;28;20392;-71
2022/01/27 11:01:00;;;;;;;263.08;143.85;;;7.90;99.90;;;;;;5026359;28;20056;-70
2022/01/27 11:04:07;;;;;;;214.70;115.22;;;7.50;99.90;;;;;;5023852;28;20052;-70
2022/01/27 11:07:14;;;;;;;214.35;118.97;;;7.30;99.90;;;;;;5029742;28;20041;-70
2022/01/27 11:10:20;;;;;;;160.90;88.63;;;7.10;99.90;;;;;;5030304;28;20044;-70
2022/01/27 11:13:26;;;;;;;154.68;89.80;;;7.30;99.90;;;;;;5025754;28;20064;-70
2022/01/27 11:16:35;;;;;;;162.02;88.82;;;7.50;99.90;;;;;;5028127;28;20408;-70
2022/01/27 11:26:04;;;;;;;87.72;51.67;;;7.50;99.90;;;;;;5027859;28;20052;-69
2022/01/27 11:29:11;;;;;;;115.30;66.65;;;7.00;99.90;;;;;;5021602;28;20048;-70
2022/01/27 11:32:44;;;;;;;90.88;52.95;;;7.40;99.90;;;;;;5031379;28;20048;-70
2022/01/27 11:36:09;;;;;;;89.20;47.83;;;7.60;99.90;;;;;;5033011;28;20040;-69
2022/01/27 11:39:17;;;;;;;78.22;45.30;;;7.70;99.90;;;;;;5019894;28;20056;-70
2022/01/27 11:42:35;;;;;;;61.92;39.70;;;8.20;99.90;;;;;;5032420;28;20393;-69
2022/01/27 11:45:39;;;;;;;87.65;47.47;;;8.40;99.90;;;;;;5031551;28;20044;-70
2022/01/27 11:48:43;;;;;;;149.32;73.25;;;8.70;99.90;;;;;;5026980;28;20048;-70
2022/01/27 11:52:34;;;;;;;172.55;80.47;;;8.80;99.90;;;;;;5029632;28;20045;-69
2022/01/27 11:55:44;;;;;;;117.20;57.22;;;9.00;99.90;;;;;;5029337;28;20043;-69
2022/01/27 11:58:59;;;;;;;110.95;55.50;;;9.10;99.90;;;;;;5032912;28;20037;-70
2022/01/27 12:02:07;;;;;;;111.55;58.80;;;9.20;99.90;;;;;;5029581;28;20056;-70
2022/01/27 12:05:12;;;;;;;117.10;61.25;;;9.40;99.90;;;;;;5011377;28;20408;-70
2022/01/27 12:08:17;;;;;;;115.97;59.47;;;9.70;99.90;;;;;;5010165;28;20057;-70
2022/01/27 12:11:43;;;;;;;81.50;45.72;;;10.00;99.90;;;;;;5010720;28;20045;-70
2022/01/27 12:14:56;;;;;;;46.40;28.10;;;10.50;99.90;;;;;;5025839;28;20045;-69
2022/01/27 12:18:36;;;;;;;70.72;41.67;;;11.20;99.90;;;;;;5032291;28;20044;-68
2022/01/27 12:21:53;;;;;;;65.18;42.53;;;11.70;99.90;;;;;;5031832;28;20040;-69
2022/01/27 12:25:00;;;;;;;29.15;15.73;;;12.20;99.90;;;;;;5030346;28;20052;-68
2022/01/27 12:28:05;;;;;;;36.58;16.65;;;12.60;99.90;;;;;;5012107;28;20052;-68
2022/01/27 12:31:09;;;;;;;44.35;21.02;;;13.00;99.90;;;;;;5019412;28;20049;-68
2022/01/27 12:34:13;;;;;;;61.05;26.80;;;13.20;99.90;;;;;;5017037;28;20052;-68
2022/01/27 12:37:20;;;;;;;31.80;17.02;;;13.40;99.90;;;;;;5017295;28;20048;-68
2022/01/27 12:40:33;;;;;;;19.58;9.00;;;13.50;99.90;;;;;;5030410;28;20048;-67
2022/01/27 12:43:37;;;;;;;;;;;13.50;99.90;;;;;;5025324;28;20045;-68
2022/01/27 12:47:11;;;;;;;24.45;11.32;;;13.50;99.90;;;;;;5023147;28;19920;-68
2022/01/27 12:50:20;;;;;;;13.68;7.85;;;13.40;99.90;;;;;;5021743;28;20056;-68
2022/01/27 12:53:27;;;;;;;47.20;24.27;;;13.20;99.90;;;;;;5033250;28;20072;-68
2022/01/27 12:56:34;;;;;;;24.50;10.50;;;13.00;99.90;;;;;;5030467;28;20048;-68
2022/01/27 12:59:42;;;;;;;14.73;8.63;;;12.80;99.90;;;;;;5030031;28;20507;-68
2022/01/27 13:02:46;;;;;;;17.38;10.38;;;12.60;99.90;;;;;;5029770;28;20384;-68
2022/01/27 13:05:53;;;;;;;16.73;9.90;;;12.40;99.90;;;;;;5029348;28;20060;-67
2022/01/27 13:09:13;;;;;;;21.15;8.63;;;12.30;99.90;;;;;;5030743;28;20041;-68
2022/01/27 13:12:23;;;;;;;15.98;7.45;;;12.10;99.90;;;;;;5029702;28;20045;-67
2022/01/27 13:15:30;;;;;;;17.98;7.43;;;12.00;99.90;;;;;;5037963;28;20068;-68
2022/01/27 13:18:48;;;;;;;12.23;5.47;;;11.80;99.90;;;;;;5038489;28;20037;-69
2022/01/27 13:22:06;;;;;;;16.48;7.95;;;11.80;99.90;;;;;;5030066;28;20040;-68
2022/01/27 13:25:11;;;;;;;14.32;6.05;;;11.80;99.90;;;;;;5032549;28;20044;-68
2022/01/27 13:28:23;;;;;;;13.27;7.60;;;11.80;99.90;;;;;;5032741;28;20052;-68
2022/01/27 13:31:28;;;;;;;16.25;9.25;;;11.90;99.90;;;;;;5033728;28;20060;-68
2022/01/27 13:34:32;;;;;;;12.10;8.52;;;12.20;99.90;;;;;;5033464;28;20048;-68
2022/01/27 13:37:39;;;;;;;10.82;6.38;;;12.20;99.90;;;;;;5033936;28;20043;-67
2022/01/27 13:44:14;;;;;;;14.75;7.40;;;12.50;99.90;;;;;;5032346;28;20033;-68
2022/01/27 13:47:25;;;;;;;24.33;10.40;;;12.50;99.90;;;;;;5034619;28;20076;-68
2022/01/27 13:50:32;;;;;;;38.92;15.68;;;12.50;99.90;;;;;;5028457;28;20064;-68
2022/01/27 13:53:36;;;;;;;25.48;10.38;;;12.40;99.90;;;;;;5033633;28;20048;-68
2022/01/27 13:56:43;;;;;;;17.00;7.35;;;12.40;99.90;;;;;;5031740;28;20048;-68
2022/01/27 13:59:56;;;;;;;15.57;7.35;;;12.50;99.90;;;;;;5033172;28;20044;-68
2022/01/27 14:03:17;;;;;;;11.73;6.30;;;12.60;99.90;;;;;;5015553;28;20037;-67
2022/01/27 14:06:23;;;;;;;7.70;5.47;;;12.70;99.90;;;;;;5014605;28;20045;-67
2022/01/27 14:09:30;;;;;;;18.73;6.35;;;12.80;99.90;;;;;;5020992;28;20048;-67
2022/01/27 14:12:47;;;;;;;17.95;10.45;;;12.90;99.90;;;;;;5028737;28;20048;-67
2022/01/27 14:15:53;;;;;;;14.32;7.85;;;12.80;99.90;;;;;;5034381;28;20048;-67
2022/01/27 14:19:09;;;;;;;12.73;7.25;;;12.70;99.90;;;;;;5034026;28;20503;-67
2022/01/27 14:22:16;;;;;;;12.95;6.10;;;12.50;99.90;;;;;;5033034;28;20506;-67
2022/01/27 14:25:35;;;;;;;13.60;6.25;;;12.20;99.90;;;;;;5023059;28;20069;-67
2022/01/27 14:28:41;;;;;;;48.72;21.45;;;12.20;99.90;;;;;;5030295;28;20041;-67
2022/01/27 14:31:47;;;;;;;51.00;20.80;;;12.20;99.90;;;;;;5015067;28;20057;-67
2022/01/27 14:34:51;;;;;;;27.05;13.18;;;12.10;99.90;;;;;;5032427;28;20053;-67
2022/01/27 14:37:57;;;;;;;31.65;13.50;;;12.00;99.90;;;;;;5033069;28;20048;-67
2022/01/27 14:41:02;;;;;;;19.40;12.23;;;11.90;99.90;;;;;;5030384;28;20044;-67
2022/01/27 14:44:08;;;;;;;14.30;9.15;;;11.90;99.90;;;;;;5028987;28;20129;-67
2022/01/27 14:47:12;;;;;;;17.33;8.93;;;11.80;99.90;;;;;;5034434;28;20037;-67
2022/01/27 14:50:17;;;;;;;10.52;6.97;;;11.70;99.90;;;;;;5026963;28;20053;-66
2022/01/27 14:53:22;;;;;;;24.13;12.05;;;11.70;99.90;;;;;;5028398;28;20053;-67
2022/01/27 14:56:26;;;;;;;28.67;14.65;;;11.70;99.90;;;;;;5025982;28;20103;-67
2022/01/27 14:59:30;;;;;;;27.70;13.40;;;11.60;99.90;;;;;;5029357;28;20599;-67
2022/01/27 15:02:35;;;;;;;19.25;11.35;;;11.60;99.90;;;;;;5026175;28;20103;-67
2022/01/27 15:05:40;;;;;;;26.45;19.10;;;11.60;99.90;;;;;;5030607;28;20060;-67
2022/01/27 15:08:44;;;;;;;27.48;17.45;;;11.50;99.90;;;;;;5030971;28;20053;-66
2022/01/27 15:11:48;;;;;;;26.00;15.60;;;11.50;99.90;;;;;;5038378;28;20048;-67
2022/01/27 15:21:54;;;;;;;22.70;9.90;;;11.40;99.90;;;;;;5044209;28;20036;-67
2022/01/27 15:24:58;;;;;;;19.75;9.40;;;11.30;99.90;;;;;;5030355;28;20044;-66
2022/01/27 15:28:03;;;;;;;14.55;9.40;;;11.20;99.90;;;;;;5029987;28;20052;-67
2022/01/27 15:31:08;;;;;;;15.85;8.85;;;11.10;99.90;;;;;;5029661;28;20064;-67
2022/01/27 15:34:12;;;;;;;23.85;13.48;;;11.00;99.90;;;;;;5030841;28;20109;-67
2022/01/27 15:37:17;;;;;;;16.88;9.30;;;10.90;99.90;;;;;;5030439;28;20036;-68
2022/01/27 15:40:21;;;;;;;24.83;14.77;;;10.90;99.90;;;;;;5028388;28;20499;-67
2022/01/27 15:43:26;;;;;;;11.40;7.93;;;10.70;99.90;;;;;;5031920;28;20053;-67
2022/01/27 15:46:30;;;;;;;16.77;8.43;;;10.70;99.90;;;;;;5025774;28;20060;-67
2022/01/27 15:49:34;;;;;;;15.65;8.40;;;10.60;99.90;;;;;;5027155;28;20045;-69
2022/01/27 15:52:41;;;;;;;19.70;8.95;;;10.50;99.90;;;;;;5018569;28;20044;-69
2022/01/27 15:55:47;;;;;;;17.88;9.02;;;10.40;99.90;;;;;;5029819;28;20048;-69
2022/01/27 15:58:52;;;;;;;45.40;20.20;;;10.40;99.90;;;;;;5011242;28;20052;-69
2022/01/27 16:01:56;;;;;;;21.02;10.40;;;10.30;99.90;;;;;;5011472;28;20045;-69
2022/01/27 16:05:01;;;;;;;43.85;23.05;;;10.30;99.90;;;;;;5011134;28;20040;-69
2022/01/27 16:08:06;;;;;;;58.65;32.30;;;10.20;99.90;;;;;;5011626;28;20041;-69
2022/01/27 16:11:10;;;;;;;38.22;21.83;;;10.10;99.90;;;;;;5024238;28;20041;-66
2022/01/27 16:14:14;;;;;;;36.55;21.67;;;10.10;99.90;;;;;;5031152;28;20044;-69
2022/01/27 16:17:19;;;;;;;23.90;11.65;;;10.10;99.90;;;;;;5031294;28;20491;-67
2022/01/27 16:20:24;;;;;;;24.48;13.15;;;10.00;99.90;;;;;;5030131;28;20064;-68
2022/01/27 16:23:29;;;;;;;15.23;9.02;;;10.00;99.90;;;;;;5030330;28;20526;-68
2022/01/27 16:26:33;;;;;;;21.23;12.50;;;10.00;99.90;;;;;;5030749;28;20064;-69
2022/01/27 16:29:38;;;;;;;19.92;9.68;;;9.90;99.90;;;;;;5029895;28;20052;-66
2022/01/27 16:32:42;;;;;;;20.02;11.02;;;9.90;99.90;;;;;;5030290;28;20050;-67
2022/01/27 16:35:46;;;;;;;30.27;19.67;;;9.90;99.90;;;;;;5030323;28;20044;-67
2022/01/27 16:38:52;;;;;;;23.80;14.35;;;9.80;99.90;;;;;;5029911;28;20495;-67
2022/01/27 16:41:57;;;;;;;17.55;11.70;;;9.70;99.90;;;;;;5030227;28;20056;-67
2022/01/27 16:45:01;;;;;;;25.35;14.25;;;9.70;99.90;;;;;;5030240;28;20495;-68
2022/01/27 16:48:05;;;;;;;25.23;17.52;;;9.70;99.90;;;;;;5030007;28;20052;-67
2022/01/27 16:51:09;;;;;;;27.40;16.38;;;9.80;99.90;;;;;;5030306;28;20041;-67
2022/01/27 16:54:14;;;;;;;64.60;34.95;;;9.80;99.90;;;;;;5029863;28;20063;-67